SEGU/GYE METAR and TAF weather

Enter ICAO airport designator
Station Type Date Time Source
SEGU METAR 2019/10/23 02:00 UTC NOAA

SEGU 230200Z 24008KT 9999 FEW009 BKN026 23/19 Q1013 NOSIG RMK A2992


Station Type Date Time Source
SEGU Decoded METAR 2019/10/23 02:00 UTC NOAA

Guayaquil / Simon Bolivar, Ecuador (SEGU) 02-09S 079-53W 9M
Oct 22, 2019 - 10:00 PM EDT / 2019.10.23 0200 UTC
Wind: from the WSW (240 degrees) at 9 MPH (8 KT):0
Visibility: greater than 7 mile(s):0
Sky conditions: mostly cloudy
Temperature: 73 F (23 C)
Dew Point: 66 F (19 C)
Relative Humidity: 78%
Pressure (altimeter): 29.91 in. Hg (1013 hPa)
ob: SEGU 230200Z 24008KT 9999 FEW009 BKN026 23/19 Q1013 NOSIG RMK A2992
cycle: 2

Station Type Date Time Source
SEGU TAF 2019/10/22 18:51 UTC NOAA

TAF SEGU 221635Z 2218/2318 18005KT 9999 BKN026 BKN100
BECMG 2300/2301 22012KT
FM230600 23006KT 9999 FEW010 BKN020 BKN100
BECMG 2313/2314 SCT023 BKN100 TX29/2220Z TN22/2310Z

Example: see airport list